GLET20 YSNW-YSNW
Flight info
| Callsign | GLET20 |
|---|---|
| Flight time | 0h 2m |
| Altitude | 1500 |
| Route | CCT |
| Aircraft | H60/L-VGDW/C |
Departure
| Time | 2026-04-16 10:07 |
|---|---|
| Airport | Naval Air Station Nowra - HMAS Albatross (YSNW) |
Arrival
| Time | 2026-04-16 10:10 |
|---|---|
| Airport | Naval Air Station Nowra - HMAS Albatross (YSNW) |
| Time | Latitude | Longitude | Altitude | Speed | Heading |
|---|---|---|---|---|---|
| 2026-04-16 10:06 | -34.93256 | 150.55650 | 567 ft | 31 kts | 236° |
| 2026-04-16 10:06 | -34.93418 | 150.55375 | 507 ft | 53 kts | 228° |
| 2026-04-16 10:06 | -34.93696 | 150.55050 | 412 ft | 55 kts | 230° |
| 2026-04-16 10:06 | -34.93935 | 150.54771 | 366 ft | 39 kts | 231° |
| 2026-04-16 10:07 | -34.94101 | 150.54576 | 366 ft | 27 kts | 230° |
| 2026-04-16 10:07 | -34.94323 | 150.54304 | 521 ft | 62 kts | 224° |
| 2026-04-16 10:07 | -34.94660 | 150.53882 | 796 ft | 74 kts | 225° |
| 2026-04-16 10:07 | -34.95041 | 150.53413 | 1076 ft | 80 kts | 225° |
| 2026-04-16 10:08 | -34.95198 | 150.52910 | 1169 ft | 58 kts | 308° |
| 2026-04-16 10:08 | -34.94845 | 150.52554 | 1107 ft | 78 kts | 312° |
| 2026-04-16 10:08 | -34.94333 | 150.52445 | 1259 ft | 75 kts | 45° |
| 2026-04-16 10:08 | -34.93944 | 150.52967 | 1279 ft | 96 kts | 46° |
| 2026-04-16 10:09 | -34.93552 | 150.53703 | 1082 ft | 107 kts | 46° |
| 2026-04-16 10:09 | -34.93192 | 150.54468 | 928 ft | 95 kts | 98° |
| 2026-04-16 10:09 | -34.93478 | 150.55048 | 685 ft | 82 kts | 185° |
| 2026-04-16 10:09 | -34.93915 | 150.54795 | 485 ft | 69 kts | 232° |
| 2026-04-16 10:10 | -34.94219 | 150.54420 | 414 ft | 55 kts | 227° |
| 2026-04-16 10:10 | -34.94449 | 150.54157 | 408 ft | 38 kts | 223° |
| 2026-04-16 10:10 | -34.94616 | 150.54022 | 393 ft | 24 kts | 142° |
| 2026-04-16 10:10 | -34.94628 | 150.54163 | 377 ft | 16 kts | 58° |
| 2026-04-16 10:11 | -34.94582 | 150.54221 | 368 ft | 0 kts | 44° |
| 2026-04-16 10:11 | -34.94579 | 150.54227 | 379 ft | 8 kts | 43° |
| 2026-04-16 10:11 | -34.94529 | 150.54448 | 498 ft | 57 kts | 81° |
| 2026-04-16 10:12 | -34.94546 | 150.55080 | 624 ft | 78 kts | 87° |
| 2026-04-16 10:12 | -34.94550 | 150.55753 | 646 ft | 78 kts | 87° |
| 2026-04-16 10:12 | -34.94513 | 150.56396 | 649 ft | 82 kts | 87° |
| 2026-04-16 10:12 | -34.94477 | 150.57063 | 647 ft | 77 kts | 87° |
| 2026-04-16 10:13 | -34.94455 | 150.57688 | 655 ft | 72 kts | 87° |
| 2026-04-16 10:13 | -34.94435 | 150.58376 | 653 ft | 80 kts | 87° |
| 2026-04-16 10:13 | -34.94403 | 150.59032 | 656 ft | 80 kts | 87° |
| 2026-04-16 10:13 | -34.94382 | 150.59704 | 656 ft | 77 kts | 87° |
| 2026-04-16 10:14 | -34.94370 | 150.60350 | 652 ft | 76 kts | 87° |
| 2026-04-16 10:14 | -34.94354 | 150.60991 | 656 ft | 76 kts | 87° |
| 2026-04-16 10:14 | -34.94334 | 150.61619 | 664 ft | 73 kts | 87° |
| 2026-04-16 10:14 | -34.94327 | 150.62225 | 656 ft | 70 kts | 87° |
| 2026-04-16 10:15 | -34.94353 | 150.62846 | 654 ft | 75 kts | 87° |
| 2026-04-16 10:15 | -34.94373 | 150.63479 | 650 ft | 78 kts | 87° |
| 2026-04-16 10:15 | -34.94369 | 150.64226 | 651 ft | 88 kts | 86° |
| 2026-04-16 10:15 | -34.94345 | 150.64941 | 655 ft | 81 kts | 86° |
| 2026-04-16 10:16 | -34.94306 | 150.65618 | 650 ft | 84 kts | 73° |
| 2026-04-16 10:16 | -34.94097 | 150.66314 | 631 ft | 99 kts | 56° |
| 2026-04-16 10:16 | -34.93724 | 150.67138 | 632 ft | 121 kts | 56° |
| 2026-04-16 10:16 | -34.93362 | 150.67982 | 658 ft | 103 kts | 56° |
| 2026-04-16 10:17 | -34.93031 | 150.68700 | 657 ft | 92 kts | 56° |
| 2026-04-16 10:17 | -34.92764 | 150.69363 | 655 ft | 83 kts | 56° |
| 2026-04-16 10:17 | -34.92507 | 150.69957 | 644 ft | 78 kts | 56° |
| 2026-04-16 10:17 | -34.92264 | 150.70534 | 646 ft | 78 kts | 56° |
| 2026-04-16 10:18 | -34.91793 | 150.70502 | 952 ft | 120 kts | 296° |
| 2026-04-16 10:18 | -34.91700 | 150.69212 | 377 ft | 172 kts | 258° |
| 2026-04-16 10:18 | -34.91821 | 150.67756 | 527 ft | 173 kts | 264° |
| 2026-04-16 10:18 | -34.91994 | 150.66338 | 812 ft | 165 kts | 260° |
| 2026-04-16 10:19 | -34.92164 | 150.64983 | 1079 ft | 160 kts | 262° |
| 2026-04-16 10:19 | -34.92290 | 150.63655 | 1342 ft | 159 kts | 264° |
| 2026-04-16 10:19 | -34.92375 | 150.62314 | 1583 ft | 159 kts | 266° |
| 2026-04-16 10:19 | -34.92411 | 150.60948 | 1431 ft | 166 kts | 269° |
| 2026-04-16 10:20 | -34.92396 | 150.59519 | 1088 ft | 167 kts | 271° |
| 2026-04-16 10:20 | -34.92289 | 150.58126 | 989 ft | 164 kts | 282° |
| 2026-04-16 10:20 | -34.92327 | 150.56922 | 796 ft | 130 kts | 244° |
| 2026-04-16 10:20 | -34.92854 | 150.56081 | 785 ft | 124 kts | 230° |
| 2026-04-16 10:21 | -34.93436 | 150.55355 | 606 ft | 111 kts | 226° |
| 2026-04-16 10:21 | -34.93939 | 150.54765 | 469 ft | 86 kts | 228° |
| 2026-04-16 10:21 | -34.94315 | 150.54315 | 516 ft | 66 kts | 228° |
| 2026-04-16 10:21 | -34.94531 | 150.53931 | 540 ft | 44 kts | 274° |
| 2026-04-16 10:22 | -34.94496 | 150.53688 | 436 ft | 24 kts | 314° |
| 2026-04-16 10:22 | -34.94408 | 150.53583 | 396 ft | 12 kts | 271° |
| 2026-04-16 10:22 | -34.94421 | 150.53550 | 383 ft | 1 kts | 232° |
| 2026-04-16 10:22 | -34.94423 | 150.53549 | 377 ft | 0 kts | 233° |
| 2026-04-16 10:23 | -34.94420 | 150.53545 | 377 ft | 0 kts | 141° |
| 2026-04-16 10:25 | -34.94420 | 150.53546 | 379 ft | 0 kts | 138° |
| 2026-04-16 10:25 | -34.94431 | 150.53555 | 387 ft | 1 kts | 136° |
| 2026-04-16 10:25 | -34.94431 | 150.53556 | 393 ft | 0 kts | 136° |
| 2026-04-16 10:26 | -34.94430 | 150.53555 | 387 ft | 0 kts | 69° |
| 2026-04-16 10:26 | -34.94432 | 150.53555 | 395 ft | 0 kts | 326° |
| 2026-04-16 10:26 | -34.94391 | 150.53570 | 406 ft | 12 kts | 311° |
| 2026-04-16 10:27 | -34.94388 | 150.53534 | 402 ft | 10 kts | 166° |
| 2026-04-16 10:27 | -34.94406 | 150.53601 | 385 ft | 11 kts | 41° |
| 2026-04-16 10:27 | -34.94374 | 150.53557 | 390 ft | 17 kts | 255° |
| 2026-04-16 10:27 | -34.94444 | 150.53630 | 384 ft | 22 kts | 43° |
| 2026-04-16 10:28 | -34.94360 | 150.53693 | 462 ft | 8 kts | 34° |
| 2026-04-16 10:28 | -34.94364 | 150.53684 | 491 ft | 10 kts | 33° |
| 2026-04-16 10:28 | -34.94358 | 150.53692 | 520 ft | 8 kts | 29° |
| 2026-04-16 10:28 | -34.94324 | 150.53726 | 524 ft | 1 kts | 25° |
| 2026-04-16 10:29 | -34.94316 | 150.53758 | 516 ft | 5 kts | 337° |
| 2026-04-16 10:29 | -34.94283 | 150.53769 | 527 ft | 5 kts | 257° |
| 2026-04-16 10:29 | -34.94272 | 150.53737 | 523 ft | 2 kts | 177° |
| 2026-04-16 10:29 | -34.94275 | 150.53739 | 529 ft | 0 kts | 171° |
| 2026-04-16 10:30 | -34.94284 | 150.53742 | 528 ft | 1 kts | 171° |
| 2026-04-16 10:30 | -34.94292 | 150.53743 | 525 ft | 0 kts | 178° |
| 2026-04-16 10:30 | -34.94290 | 150.53744 | 526 ft | 1 kts | 182° |
| 2026-04-16 10:30 | -34.94396 | 150.53565 | 374 ft | 24 kts | 225° |
| 2026-04-16 10:31 | -34.94423 | 150.53539 | 378 ft | 0 kts | 158° |
| 2026-04-16 10:32 | -34.94425 | 150.53542 | 388 ft | 4 kts | 147° |
| 2026-04-16 10:32 | -34.94569 | 150.53700 | 483 ft | 76 kts | 135° |
| 2026-04-16 10:32 | -34.94753 | 150.54665 | 976 ft | 149 kts | 72° |
| 2026-04-16 10:32 | -34.94717 | 150.56046 | 1418 ft | 168 kts | 84° |
| 2026-04-16 10:33 | -34.94607 | 150.57530 | 1763 ft | 183 kts | 85° |
| 2026-04-16 10:33 | -34.94531 | 150.59122 | 2022 ft | 191 kts | 86° |
| 2026-04-16 10:33 | -34.94493 | 150.60766 | 2239 ft | 196 kts | 88° |
| 2026-04-16 10:33 | -34.94495 | 150.62431 | 2406 ft | 196 kts | 91° |
| 2026-04-16 10:34 | -34.94537 | 150.64081 | 2529 ft | 198 kts | 93° |
| 2026-04-16 10:34 | -34.94620 | 150.65780 | 2634 ft | 201 kts | 95° |
| 2026-04-16 10:34 | -34.94744 | 150.67492 | 2705 ft | 203 kts | 96° |
| 2026-04-16 10:34 | -34.94471 | 150.69190 | 2464 ft | 211 kts | 63° |
| 2026-04-16 10:35 | -34.93767 | 150.70673 | 2070 ft | 188 kts | 57° |
| 2026-04-16 10:35 | -34.93185 | 150.71904 | 2007 ft | 144 kts | 56° |
| 2026-04-16 10:35 | -34.92739 | 150.72839 | 2198 ft | 117 kts | 54° |
| 2026-04-16 10:35 | -34.92323 | 150.73671 | 2328 ft | 115 kts | 52° |
| 2026-04-16 10:36 | -34.91906 | 150.74499 | 2429 ft | 114 kts | 52° |
| 2026-04-16 10:36 | -34.91484 | 150.75315 | 2527 ft | 113 kts | 51° |
| 2026-04-16 10:36 | -34.91047 | 150.76114 | 2583 ft | 114 kts | 50° |
| 2026-04-16 10:36 | -34.90748 | 150.76641 | 2602 ft | 114 kts | 48° |
| 2026-04-16 10:37 | -34.90283 | 150.77427 | 2628 ft | 115 kts | 47° |
| 2026-04-16 10:37 | -34.89608 | 150.77885 | 1937 ft | 122 kts | 355° |
| 2026-04-16 10:37 | -34.88709 | 150.77591 | 154 ft | 137 kts | 330° |
| 2026-04-16 10:37 | -34.88038 | 150.77205 | 329 ft | 86 kts | 333° |
| 2026-04-16 10:38 | -34.87561 | 150.76966 | 282 ft | 69 kts | 335° |
| 2026-04-16 10:38 | -34.87146 | 150.76777 | 135 ft | 60 kts | 335° |
| 2026-04-16 10:38 | -34.86774 | 150.76630 | 54 ft | 51 kts | 337° |
| 2026-04-16 10:38 | -34.86477 | 150.76541 | 80 ft | 38 kts | 337° |
| 2026-04-16 10:39 | -34.86250 | 150.76501 | 51 ft | 31 kts | 340° |
| 2026-04-16 10:39 | -34.86026 | 150.76444 | 65 ft | 37 kts | 337° |
| 2026-04-16 10:39 | -34.85763 | 150.76313 | 171 ft | 45 kts | 329° |
| 2026-04-16 10:39 | -34.85436 | 150.76150 | 348 ft | 57 kts | 333° |
| 2026-04-16 10:40 | -34.85038 | 150.75981 | 630 ft | 61 kts | 336° |
| 2026-04-16 10:40 | -34.84661 | 150.75891 | 937 ft | 68 kts | 345° |
| 2026-04-16 10:40 | -34.84140 | 150.76388 | 719 ft | 118 kts | 57° |
| 2026-04-16 10:40 | -34.84171 | 150.77419 | 418 ft | 132 kts | 114° |
| 2026-04-16 10:41 | -34.84885 | 150.78060 | 97 ft | 120 kts | 171° |
| 2026-04-16 10:41 | -34.85561 | 150.78215 | 300 ft | 79 kts | 174° |
| 2026-04-16 10:41 | -34.85968 | 150.78251 | 249 ft | 32 kts | 176° |
| 2026-04-16 10:41 | -34.86039 | 150.78258 | 174 ft | 0 kts | 175° |
| 2026-04-16 10:42 | -34.86040 | 150.78257 | 93 ft | 1 kts | 175° |
| 2026-04-16 10:42 | -34.86041 | 150.78257 | 20 ft | 1 kts | 175° |
| 2026-04-16 10:42 | -34.86041 | 150.78256 | 18 ft | 0 kts | 175° |
| 2026-04-16 10:43 | -34.86040 | 150.78256 | 67 ft | 1 kts | 175° |
| 2026-04-16 10:44 | -34.86040 | 150.78257 | 85 ft | 1 kts | 175° |
| 2026-04-16 10:44 | -34.86040 | 150.78258 | 97 ft | 0 kts | 175° |
| 2026-04-16 10:45 | -34.86117 | 150.78250 | 72 ft | 39 kts | 175° |
| 2026-04-16 10:45 | -34.86541 | 150.78528 | 260 ft | 98 kts | 126° |
| 2026-04-16 10:45 | -34.86566 | 150.79287 | 416 ft | 69 kts | 339° |
| 2026-04-16 10:45 | -34.86375 | 150.79257 | 87 ft | 28 kts | 270° |
| 2026-04-16 10:46 | -34.86344 | 150.79228 | 26 ft | 2 kts | 334° |
| 2026-04-16 10:46 | -34.86339 | 150.79212 | 36 ft | 5 kts | 332° |
| 2026-04-16 10:46 | -34.86258 | 150.79255 | 62 ft | 20 kts | 330° |
| 2026-04-16 10:46 | -34.86100 | 150.79382 | 150 ft | 33 kts | 340° |
| 2026-04-16 10:47 | -34.85904 | 150.79603 | 347 ft | 43 kts | 7° |
| 2026-04-16 10:47 | -34.85735 | 150.79926 | 645 ft | 47 kts | 44° |
| 2026-04-16 10:47 | -34.85657 | 150.80319 | 947 ft | 56 kts | 68° |
| 2026-04-16 10:47 | -34.85571 | 150.80975 | 969 ft | 97 kts | 80° |
| 2026-04-16 10:48 | -34.85482 | 150.81887 | 1024 ft | 118 kts | 84° |
| 2026-04-16 10:48 | -34.85421 | 150.82931 | 967 ft | 132 kts | 86° |
| 2026-04-16 10:48 | -34.85372 | 150.84079 | 794 ft | 134 kts | 76° |
| 2026-04-16 10:48 | -34.84904 | 150.85003 | 634 ft | 130 kts | 35° |
| 2026-04-16 10:49 | -34.84062 | 150.85305 | 306 ft | 126 kts | 349° |
| 2026-04-16 10:49 | -34.83349 | 150.84870 | 267 ft | 109 kts | 310° |
| 2026-04-16 10:49 | -34.83161 | 150.84052 | 436 ft | 99 kts | 265° |
| 2026-04-16 10:49 | -34.83438 | 150.83301 | 588 ft | 100 kts | 256° |
| 2026-04-16 10:50 | -34.83250 | 150.82469 | 391 ft | 107 kts | 304° |
| 2026-04-16 10:50 | -34.82758 | 150.81868 | 508 ft | 93 kts | 319° |
| 2026-04-16 10:50 | -34.82271 | 150.81481 | 875 ft | 74 kts | 324° |
| 2026-04-16 10:50 | -34.81844 | 150.81259 | 1234 ft | 61 kts | 332° |
| 2026-04-16 10:51 | -34.81433 | 150.81147 | 1441 ft | 71 kts | 336° |
| 2026-04-16 10:51 | -34.80836 | 150.81028 | 1397 ft | 103 kts | 343° |
| 2026-04-16 10:51 | -34.80045 | 150.80925 | 1170 ft | 124 kts | 350° |
| 2026-04-16 10:51 | -34.79127 | 150.80883 | 728 ft | 134 kts | 1° |
| 2026-04-16 10:52 | -34.78339 | 150.81378 | 525 ft | 130 kts | 47° |
| 2026-04-16 10:52 | -34.77923 | 150.82304 | 400 ft | 109 kts | 33° |
| 2026-04-16 10:52 | -34.77245 | 150.82465 | 288 ft | 95 kts | 44° |
| 2026-04-16 10:52 | -34.76835 | 150.83083 | 234 ft | 89 kts | 22° |
| 2026-04-16 10:53 | -34.76294 | 150.83375 | 305 ft | 88 kts | 7° |
| 2026-04-16 10:53 | -34.75686 | 150.83478 | 400 ft | 88 kts | 353° |
| 2026-04-16 10:53 | -34.75081 | 150.83396 | 486 ft | 87 kts | 343° |
| 2026-04-16 10:53 | -34.74512 | 150.83141 | 559 ft | 88 kts | 331° |
| 2026-04-16 10:54 | -34.73950 | 150.82824 | 639 ft | 90 kts | 328° |
| 2026-04-16 10:54 | -34.73389 | 150.82489 | 670 ft | 90 kts | 328° |
| 2026-04-16 10:54 | -34.72836 | 150.82137 | 684 ft | 92 kts | 328° |
| 2026-04-16 10:54 | -34.72273 | 150.81758 | 708 ft | 93 kts | 328° |
| 2026-04-16 10:55 | -34.71726 | 150.81342 | 806 ft | 92 kts | 320° |
| 2026-04-16 10:55 | -34.71297 | 150.80822 | 1033 ft | 83 kts | 305° |
| 2026-04-16 10:55 | -34.71031 | 150.80243 | 1215 ft | 75 kts | 290° |
| 2026-04-16 10:55 | -34.70929 | 150.79629 | 1426 ft | 73 kts | 273° |
| 2026-04-16 10:56 | -34.70988 | 150.79018 | 1599 ft | 73 kts | 257° |
| 2026-04-16 10:56 | -34.71204 | 150.78458 | 1822 ft | 74 kts | 244° |
| 2026-04-16 10:56 | -34.71507 | 150.77872 | 2051 ft | 89 kts | 246° |
| 2026-04-16 10:56 | -34.71773 | 150.77175 | 2289 ft | 98 kts | 246° |
| 2026-04-16 10:57 | -34.72014 | 150.76374 | 2441 ft | 104 kts | 254° |
| 2026-04-16 10:57 | -34.72227 | 150.75482 | 2388 ft | 115 kts | 263° |
| 2026-04-16 10:57 | -34.72183 | 150.74477 | 2125 ft | 123 kts | 279° |
| 2026-04-16 10:57 | -34.71732 | 150.73736 | 2050 ft | 107 kts | 322° |
| 2026-04-16 10:58 | -34.71017 | 150.73486 | 1962 ft | 105 kts | 337° |
| 2026-04-16 10:58 | -34.70252 | 150.73486 | 2059 ft | 119 kts | 22° |
| 2026-04-16 10:58 | -34.69607 | 150.74100 | 1937 ft | 111 kts | 101° |
| 2026-04-16 10:58 | -34.69813 | 150.74762 | 1987 ft | 83 kts | 179° |
| 2026-04-16 10:59 | -34.70278 | 150.74821 | 1901 ft | 70 kts | 209° |
| 2026-04-16 10:59 | -34.70735 | 150.74542 | 1818 ft | 72 kts | 223° |
| 2026-04-16 10:59 | -34.71114 | 150.74183 | 1616 ft | 65 kts | 213° |
| 2026-04-16 10:59 | -34.71434 | 150.74221 | 1375 ft | 58 kts | 90° |
| 2026-04-16 11:00 | -34.71439 | 150.74598 | 1132 ft | 17 kts | 333° |
| 2026-04-16 11:00 | -34.71367 | 150.74360 | 1174 ft | 36 kts | 288° |
| 2026-04-16 11:00 | -34.71308 | 150.74201 | 1088 ft | 11 kts | 305° |
| 2026-04-16 11:00 | -34.71288 | 150.74173 | 1078 ft | 1 kts | 304° |
| 2026-04-16 11:01 | -34.71298 | 150.74191 | 1081 ft | 2 kts | 306° |
| 2026-04-16 11:01 | -34.71434 | 150.74669 | 1235 ft | 125 kts | 120° |
| 2026-04-16 11:01 | -34.72176 | 150.75687 | 1102 ft | 195 kts | 142° |
| 2026-04-16 11:01 | -34.73398 | 150.76366 | 1021 ft | 184 kts | 160° |
| 2026-04-16 11:02 | -34.74540 | 150.76801 | 1686 ft | 171 kts | 167° |
| 2026-04-16 11:02 | -34.75718 | 150.77138 | 1511 ft | 177 kts | 171° |
| 2026-04-16 11:02 | -34.76913 | 150.77340 | 1403 ft | 170 kts | 175° |
| 2026-04-16 11:02 | -34.78086 | 150.77329 | 1427 ft | 168 kts | 175° |
| 2026-04-16 11:03 | -34.78940 | 150.77495 | 1859 ft | 75 kts | 63° |
| 2026-04-16 11:03 | -34.78967 | 150.78161 | 1987 ft | 106 kts | 30° |
| 2026-04-16 11:03 | -34.77569 | 150.78902 | 1418 ft | 97 kts | 7° |
| 2026-04-16 11:04 | -34.76921 | 150.79169 | 1412 ft | 95 kts | 17° |
| 2026-04-16 11:04 | -34.76385 | 150.79512 | 1439 ft | 97 kts | 18° |
| 2026-04-16 11:04 | -34.75638 | 150.79900 | 1403 ft | 128 kts | 19° |
| 2026-04-16 11:04 | -34.74799 | 150.80322 | 1386 ft | 127 kts | 19° |
| 2026-04-16 11:05 | -34.74066 | 150.80734 | 1453 ft | 116 kts | 20° |
| 2026-04-16 11:05 | -34.73263 | 150.81191 | 1449 ft | 136 kts | 21° |
| 2026-04-16 11:05 | -34.72414 | 150.81682 | 1360 ft | 125 kts | 18° |
| 2026-04-16 11:05 | -34.71676 | 150.82105 | 1436 ft | 119 kts | 19° |
| 2026-04-16 11:06 | -34.70906 | 150.82454 | 1391 ft | 115 kts | 11° |
| 2026-04-16 11:06 | -34.70093 | 150.82722 | 1495 ft | 131 kts | 11° |
| 2026-04-16 11:06 | -34.69168 | 150.83046 | 1226 ft | 136 kts | 12° |
| 2026-04-16 11:06 | -34.68286 | 150.83421 | 1422 ft | 139 kts | 15° |
| 2026-04-16 11:07 | -34.67360 | 150.83879 | 1313 ft | 141 kts | 21° |
| 2026-04-16 11:07 | -34.66576 | 150.84434 | 1063 ft | 127 kts | 27° |
| 2026-04-16 11:07 | -34.65847 | 150.85064 | 694 ft | 127 kts | 33° |
| 2026-04-16 11:07 | -34.65188 | 150.85690 | 593 ft | 115 kts | 35° |
| 2026-04-16 11:08 | -34.64502 | 150.86107 | 525 ft | 108 kts | 14° |
| 2026-04-16 11:08 | -34.63773 | 150.86256 | 483 ft | 104 kts | 2° |
| 2026-04-16 11:08 | -34.63054 | 150.86314 | 474 ft | 104 kts | 2° |
| 2026-04-16 11:08 | -34.62328 | 150.86443 | 423 ft | 106 kts | 9° |
| 2026-04-16 11:09 | -34.61622 | 150.86701 | 354 ft | 109 kts | 18° |
| 2026-04-16 11:09 | -34.60934 | 150.87091 | 285 ft | 108 kts | 25° |
| 2026-04-16 11:09 | -34.60293 | 150.87485 | 474 ft | 100 kts | 13° |
| 2026-04-16 11:09 | -34.59610 | 150.87376 | 469 ft | 104 kts | 335° |
| 2026-04-16 11:10 | -34.59009 | 150.86861 | 478 ft | 103 kts | 325° |
| 2026-04-16 11:10 | -34.58436 | 150.86362 | 592 ft | 100 kts | 323° |
| 2026-04-16 11:10 | -34.57947 | 150.85788 | 672 ft | 101 kts | 305° |
| 2026-04-16 11:10 | -34.57687 | 150.84967 | 632 ft | 107 kts | 287° |
| 2026-04-16 11:11 | -34.57513 | 150.84087 | 608 ft | 107 kts | 284° |
| 2026-04-16 11:11 | -34.57355 | 150.83220 | 576 ft | 106 kts | 283° |
| 2026-04-16 11:11 | -34.57143 | 150.82365 | 562 ft | 106 kts | 294° |
| 2026-04-16 11:11 | -34.56805 | 150.81568 | 530 ft | 106 kts | 298° |
| 2026-04-16 11:12 | -34.56480 | 150.80789 | 364 ft | 102 kts | 294° |
| 2026-04-16 11:12 | -34.56335 | 150.80000 | 165 ft | 91 kts | 275° |
| 2026-04-16 11:12 | -34.56302 | 150.79358 | 69 ft | 55 kts | 283° |
| 2026-04-16 11:12 | -34.56263 | 150.79006 | 62 ft | 32 kts | 317° |
| 2026-04-16 11:13 | -34.56161 | 150.78926 | 48 ft | 13 kts | 21° |
| 2026-04-16 11:13 | -34.56117 | 150.78946 | 45 ft | 2 kts | 22° |
| 2026-04-16 11:13 | -34.56093 | 150.78967 | 45 ft | 6 kts | 13° |
| 2026-04-16 11:13 | -34.56062 | 150.78975 | 41 ft | 3 kts | 247° |
| 2026-04-16 11:14 | -34.56062 | 150.78969 | 32 ft | 0 kts | 218° |
| 2026-04-16 11:16 | -34.56064 | 150.78964 | 37 ft | 5 kts | 223° |
| 2026-04-16 11:16 | -34.56167 | 150.78859 | 48 ft | 36 kts | 207° |
| 2026-04-16 11:16 | -34.56519 | 150.78840 | 239 ft | 83 kts | 173° |
| 2026-04-16 11:16 | -34.57229 | 150.78993 | 1274 ft | 122 kts | 174° |
| 2026-04-16 11:17 | -34.58148 | 150.79203 | 1467 ft | 150 kts | 172° |
| 2026-04-16 11:17 | -34.59287 | 150.79484 | 745 ft | 180 kts | 168° |
| 2026-04-16 11:17 | -34.60478 | 150.79826 | 834 ft | 164 kts | 169° |
| 2026-04-16 11:17 | -34.61505 | 150.80113 | 1622 ft | 141 kts | 170° |
| 2026-04-16 11:18 | -34.62488 | 150.79952 | 1832 ft | 148 kts | 200° |
| 2026-04-16 11:18 | -34.63480 | 150.79558 | 1813 ft | 154 kts | 201° |
| 2026-04-16 11:18 | -34.64493 | 150.79150 | 1862 ft | 152 kts | 201° |
| 2026-04-16 11:18 | -34.65495 | 150.78765 | 1908 ft | 151 kts | 200° |
| 2026-04-16 11:19 | -34.66504 | 150.78432 | 1916 ft | 150 kts | 198° |
| 2026-04-16 11:19 | -34.67508 | 150.78074 | 1929 ft | 151 kts | 201° |
| 2026-04-16 11:19 | -34.68500 | 150.77679 | 1955 ft | 149 kts | 202° |
| 2026-04-16 11:19 | -34.69470 | 150.77252 | 1927 ft | 149 kts | 204° |
| 2026-04-16 11:20 | -34.70440 | 150.76781 | 1903 ft | 150 kts | 206° |
| 2026-04-16 11:20 | -34.71416 | 150.76294 | 1812 ft | 153 kts | 207° |
| 2026-04-16 11:20 | -34.72418 | 150.75805 | 1745 ft | 156 kts | 206° |
| 2026-04-16 11:20 | -34.73431 | 150.75325 | 1693 ft | 156 kts | 205° |
| 2026-04-16 11:21 | -34.74413 | 150.74867 | 1402 ft | 145 kts | 203° |
| 2026-04-16 11:21 | -34.75284 | 150.74408 | 1175 ft | 134 kts | 209° |
| 2026-04-16 11:21 | -34.75976 | 150.73647 | 1079 ft | 139 kts | 243° |
| 2026-04-16 11:21 | -34.76370 | 150.72623 | 1023 ft | 126 kts | 249° |
| 2026-04-16 11:22 | -34.76682 | 150.71682 | 1217 ft | 118 kts | 250° |
| 2026-04-16 11:22 | -34.76991 | 150.70761 | 1074 ft | 114 kts | 249° |
| 2026-04-16 11:22 | -34.77381 | 150.70007 | 1075 ft | 100 kts | 237° |
| 2026-04-16 11:22 | -34.77786 | 150.69383 | 1178 ft | 88 kts | 239° |
| 2026-04-16 11:23 | -34.78117 | 150.68818 | 1436 ft | 78 kts | 237° |
| 2026-04-16 11:23 | -34.78563 | 150.68404 | 1537 ft | 86 kts | 217° |
| 2026-04-16 11:23 | -34.79061 | 150.67968 | 1531 ft | 90 kts | 222° |
| 2026-04-16 11:23 | -34.79540 | 150.67451 | 1497 ft | 94 kts | 227° |
| 2026-04-16 11:24 | -34.80027 | 150.66905 | 1469 ft | 97 kts | 221° |
| 2026-04-16 11:24 | -34.80385 | 150.66581 | 1510 ft | 97 kts | 219° |
| 2026-04-16 11:24 | -34.81053 | 150.66380 | 949 ft | 106 kts | 170° |
| 2026-04-16 11:24 | -34.81591 | 150.66422 | 634 ft | 16 kts | 292° |
| 2026-04-16 11:25 | -34.81543 | 150.66296 | 495 ft | 21 kts | 290° |
| 2026-04-16 11:25 | -34.81513 | 150.66176 | 467 ft | 22 kts | 293° |
| 2026-04-16 11:25 | -34.81486 | 150.65975 | 493 ft | 38 kts | 276° |
| 2026-04-16 11:25 | -34.81691 | 150.65476 | 580 ft | 90 kts | 233° |
| 2026-04-16 11:26 | -34.82228 | 150.64975 | 443 ft | 100 kts | 212° |
| 2026-04-16 11:26 | -34.82816 | 150.64616 | 504 ft | 93 kts | 207° |
| 2026-04-16 11:26 | -34.83443 | 150.64315 | 583 ft | 101 kts | 208° |
| 2026-04-16 11:26 | -34.84124 | 150.64076 | 609 ft | 101 kts | 204° |
| 2026-04-16 11:27 | -34.84810 | 150.63744 | 796 ft | 112 kts | 211° |
| 2026-04-16 11:27 | -34.85467 | 150.63244 | 979 ft | 110 kts | 220° |
| 2026-04-16 11:27 | -34.86031 | 150.62656 | 1208 ft | 105 kts | 231° |
| 2026-04-16 11:27 | -34.86513 | 150.62022 | 1308 ft | 100 kts | 230° |
| 2026-04-16 11:28 | -34.86942 | 150.61429 | 1357 ft | 90 kts | 234° |
| 2026-04-16 11:28 | -34.87356 | 150.60890 | 1419 ft | 84 kts | 232° |
| 2026-04-16 11:28 | -34.87776 | 150.60413 | 1454 ft | 82 kts | 225° |
| 2026-04-16 11:28 | -34.88277 | 150.60030 | 1284 ft | 90 kts | 222° |
| 2026-04-16 11:29 | -34.88797 | 150.59662 | 1322 ft | 80 kts | 211° |
| 2026-04-16 11:29 | -34.89277 | 150.59430 | 1532 ft | 69 kts | 213° |
| 2026-04-16 11:29 | -34.89710 | 150.59229 | 1649 ft | 75 kts | 213° |
| 2026-04-16 11:29 | -34.90355 | 150.58732 | 1330 ft | 139 kts | 220° |
| 2026-04-16 11:30 | -34.91187 | 150.58153 | 1206 ft | 131 kts | 208° |
| 2026-04-16 11:30 | -34.92000 | 150.57752 | 1266 ft | 122 kts | 207° |
| 2026-04-16 11:30 | -34.92777 | 150.57363 | 1058 ft | 118 kts | 208° |
| 2026-04-16 11:30 | -34.93508 | 150.57002 | 978 ft | 109 kts | 210° |
| 2026-04-16 11:31 | -34.94183 | 150.56680 | 997 ft | 99 kts | 208° |
| 2026-04-16 11:31 | -34.94792 | 150.56401 | 1169 ft | 87 kts | 219° |
| 2026-04-16 11:31 | -34.94989 | 150.55719 | 860 ft | 96 kts | 276° |
| 2026-04-16 11:31 | -34.94932 | 150.54973 | 432 ft | 67 kts | 279° |
| 2026-04-16 11:32 | -34.94911 | 150.54576 | 426 ft | 41 kts | 274° |
| 2026-04-16 11:32 | -34.94884 | 150.54223 | 511 ft | 50 kts | 274° |
| 2026-04-16 11:32 | -34.94846 | 150.53694 | 672 ft | 74 kts | 273° |
| 2026-04-16 11:32 | -34.94814 | 150.53004 | 871 ft | 86 kts | 271° |
| 2026-04-16 11:33 | -34.94766 | 150.52268 | 942 ft | 84 kts | 275° |
| 2026-04-16 11:33 | -34.94701 | 150.51616 | 1065 ft | 76 kts | 276° |
| 2026-04-16 11:33 | -34.94712 | 150.50989 | 1108 ft | 71 kts | 242° |
| 2026-04-16 11:33 | -34.95191 | 150.50813 | 1129 ft | 88 kts | 182° |
| 2026-04-16 11:34 | -34.95804 | 150.50945 | 1053 ft | 89 kts | 181° |
| 2026-04-16 11:34 | -34.96297 | 150.51343 | 1026 ft | 93 kts | 109° |
| 2026-04-16 11:34 | -34.96373 | 150.52190 | 893 ft | 102 kts | 101° |
| 2026-04-16 11:34 | -34.96479 | 150.53016 | 824 ft | 95 kts | 102° |
| 2026-04-16 11:35 | -34.96620 | 150.53799 | 863 ft | 94 kts | 105° |
| 2026-04-16 11:35 | -34.96736 | 150.54569 | 878 ft | 91 kts | 86° |
| 2026-04-16 11:35 | -34.96396 | 150.55202 | 696 ft | 86 kts | 35° |
| 2026-04-16 11:35 | -34.95848 | 150.55437 | 816 ft | 89 kts | 6° |
| 2026-04-16 11:36 | -34.95218 | 150.55594 | 835 ft | 97 kts | 337° |
| 2026-04-16 11:36 | -34.94926 | 150.54987 | 493 ft | 88 kts | 274° |
| 2026-04-16 11:36 | -34.94892 | 150.54337 | 393 ft | 57 kts | 274° |
| 2026-04-16 11:36 | -34.94879 | 150.54079 | 418 ft | 25 kts | 285° |
| 2026-04-16 11:37 | -34.94788 | 150.53986 | 391 ft | 11 kts | 303° |
| 2026-04-16 11:37 | -34.94772 | 150.53836 | 390 ft | 17 kts | 273° |
| 2026-04-16 11:37 | -34.94772 | 150.53711 | 389 ft | 12 kts | 275° |
| 2026-04-16 11:37 | -34.94767 | 150.53635 | 389 ft | 8 kts | 273° |
| 2026-04-16 11:38 | -34.94760 | 150.53517 | 390 ft | 19 kts | 272° |
| 2026-04-16 11:38 | -34.94750 | 150.53347 | 381 ft | 23 kts | 272° |
| 2026-04-16 11:38 | -34.94745 | 150.53272 | 381 ft | 0 kts | 277° |
| 2026-04-16 11:38 | -34.94734 | 150.53201 | 382 ft | 13 kts | 346° |
| 2026-04-16 11:39 | -34.94642 | 150.53219 | 382 ft | 16 kts | 5° |
| 2026-04-16 11:39 | -34.94599 | 150.53239 | 382 ft | 0 kts | 185° |